sensor_id;sensor_type;location;lat;lon;timestamp;pressure;altitude;pressure_sealevel;temperature;humidity
66880;BME280;72009;51.392;10.234;2024-02-16T00:00:08;97999.34;;;9.17;100.00
66880;BME280;72009;51.392;10.234;2024-02-16T00:00:29;97999.34;;;9.17;100.00
66880;BME280;72009;51.392;10.234;2024-02-16T00:00:49;98000.97;;;9.18;100.00
66880;BME280;72009;51.392;10.234;2024-02-16T00:01:09;97996.59;;;9.17;100.00
66880;BME280;72009;51.392;10.234;2024-02-16T00:01:29;97999.34;;;9.17;100.00
66880;BME280;72009;51.392;10.234;2024-02-16T00:01:50;98005.97;;;9.16;100.00
66880;BME280;72009;51.392;10.234;2024-02-16T00:02:10;98000.47;;;9.16;100.00
66880;BME280;72009;51.392;10.234;2024-02-16T00:02:30;98001.28;;;9.16;100.00
66880;BME280;72009;51.392;10.234;2024-02-16T00:02:51;98010.31;;;9.17;100.00
66880;BME280;72009;51.392;10.234;2024-02-16T00:03:11;98010.31;;;9.17;100.00
66880;BME280;72009;51.392;10.234;2024-02-16T00:03:31;98009.22;;;9.18;100.00
66880;BME280;72009;51.392;10.234;2024-02-16T00:03:52;98009.50;;;9.16;100.00
66880;BME280;72009;51.392;10.234;2024-02-16T00:04:12;98001.28;;;9.16;100.00
66880;BME280;72009;51.392;10.234;2024-02-16T00:04:32;98007.56;;;9.17;100.00
66880;BME280;72009;51.392;10.234;2024-02-16T00:04:53;98001.81;;;9.18;100.00
66880;BME280;72009;51.392;10.234;2024-02-16T00:05:13;98001.81;;;9.18;100.00
66880;BME280;72009;51.392;10.234;2024-02-16T00:05:33;97999.88;;;9.19;100.00
66880;BME280;72009;51.392;10.234;2024-02-16T00:05:54;98015.22;;;9.20;100.00
66880;BME280;72009;51.392;10.234;2024-02-16T00:06:14;98012.50;;;9.20;100.00
66880;BME280;72009;51.392;10.234;2024-02-16T00:06:35;98003.41;;;9.19;100.00
66880;BME280;72009;51.392;10.234;2024-02-16T00:06:55;98007.00;;;9.20;100.00
66880;BME280;72009;51.392;10.234;2024-02-16T00:07:15;98003.41;;;9.19;100.00
66880;BME280;72009;51.392;10.234;2024-02-16T00:07:35;97996.03;;;9.20;100.00
66880;BME280;72009;51.392;10.234;2024-02-16T00:07:56;98000.38;;;9.21;100.00
66880;BME280;72009;51.392;10.234;2024-02-16T00:08:16;97996.81;;;9.20;100.00
66880;BME280;72009;51.392;10.234;2024-02-16T00:08:36;97996.81;;;9.20;100.00
66880;BME280;72009;51.392;10.234;2024-02-16T00:08:56;97996.03;;;9.20;100.00
66880;BME280;72009;51.392;10.234;2024-02-16T00:09:17;98000.38;;;9.21;100.00
66880;BME280;72009;51.392;10.234;2024-02-16T00:09:37;97996.81;;;9.20;100.00
66880;BME280;72009;51.392;10.234;2024-02-16T00:09:57;97994.09;;;9.20;100.00
66880;BME280;72009;51.392;10.234;2024-02-16T00:10:18;98000.38;;;9.21;100.00
66880;BME280;72009;51.392;10.234;2024-02-16T00:10:38;97990.53;;;9.20;100.00
66880;BME280;72009;51.392;10.234;2024-02-16T00:10:58;97994.88;;;9.21;100.00
66880;BME280;72009;51.392;10.234;2024-02-16T00:11:18;97994.09;;;9.20;100.00
66880;BME280;72009;51.392;10.234;2024-02-16T00:11:39;97996.81;;;9.20;100.00
66880;BME280;72009;51.392;10.234;2024-02-16T00:11:59;97985.03;;;9.20;100.00
66880;BME280;72009;51.392;10.234;2024-02-16T00:12:19;97992.13;;;9.21;100.00
66880;BME280;72009;51.392;10.234;2024-02-16T00:12:40;97993.28;;;9.20;100.00
66880;BME280;72009;51.392;10.234;2024-02-16T00:13:00;97994.09;;;9.20;100.00
66880;BME280;72009;51.392;10.234;2024-02-16T00:13:20;97985.03;;;9.20;100.00
66880;BME280;72009;51.392;10.234;2024-02-16T00:13:41;97990.53;;;9.20;100.00
66880;BME280;72009;51.392;10.234;2024-02-16T00:14:01;97986.66;;;9.21;100.00
66880;BME280;72009;51.392;10.234;2024-02-16T00:14:21;97994.59;;;9.23;100.00
66880;BME280;72009;51.392;10.234;2024-02-16T00:14:42;97988.28;;;9.22;100.00
66880;BME280;72009;51.392;10.234;2024-02-16T00:15:03;97984.75;;;9.22;100.00
66880;BME280;72009;51.392;10.234;2024-02-16T00:15:23;97994.28;;;9.24;100.00
66880;BME280;72009;51.392;10.234;2024-02-16T00:15:43;97984.44;;;9.23;100.00
66880;BME280;72009;51.392;10.234;2024-02-16T00:16:04;97994.28;;;9.24;100.00
66880;BME280;72009;51.392;10.234;2024-02-16T00:16:24;97992.38;;;9.25;100.00
66880;BME280;72009;51.392;10.234;2024-02-16T00:16:45;97989.63;;;9.25;100.00
66880;BME280;72009;51.392;10.234;2024-02-16T00:17:05;97987.69;;;9.25;100.00
66880;BME280;72009;51.392;10.234;2024-02-16T00:17:26;97990.13;;;9.27;100.00
66880;BME280;72009;51.392;10.234;2024-02-16T00:17:46;97986.56;;;9.26;100.00
66880;BME280;72009;51.392;10.234;2024-02-16T00:18:07;97994.81;;;9.26;100.00
66880;BME280;72009;51.392;10.234;2024-02-16T00:18:27;97988.19;;;9.27;100.00
66880;BME280;72009;51.392;10.234;2024-02-16T00:18:47;97987.06;;;9.28;100.00
66880;BME280;72009;51.392;10.234;2024-02-16T00:19:08;97989.00;;;9.28;100.00
66880;BME280;72009;51.392;10.234;2024-02-16T00:19:28;97986.25;;;9.28;100.00
66880;BME280;72009;51.392;10.234;2024-02-16T00:19:48;97985.44;;;9.27;100.00
66880;BME280;72009;51.392;10.234;2024-02-16T00:20:08;97982.69;;;9.27;100.00
66880;BME280;72009;51.392;10.234;2024-02-16T00:20:29;97985.44;;;9.27;100.00
66880;BME280;72009;51.392;10.234;2024-02-16T00:20:49;97985.44;;;9.27;100.00
66880;BME280;72009;51.392;10.234;2024-02-16T00:21:09;97983.81;;;9.26;100.00
66880;BME280;72009;51.392;10.234;2024-02-16T00:21:30;97983.00;;;9.26;100.00
66880;BME280;72009;51.392;10.234;2024-02-16T00:21:50;97982.19;;;9.25;100.00
66880;BME280;72009;51.392;10.234;2024-02-16T00:22:11;97986.88;;;9.25;100.00
66880;BME280;72009;51.392;10.234;2024-02-16T00:22:31;97980.56;;;9.24;100.00
66880;BME280;72009;51.392;10.234;2024-02-16T00:22:51;97988.78;;;9.24;100.00
66880;BME280;72009;51.392;10.234;2024-02-16T00:23:12;97986.03;;;9.24;100.00
66880;BME280;72009;51.392;10.234;2024-02-16T00:23:32;97983.28;;;9.24;100.00
66880;BME280;72009;51.392;10.234;2024-02-16T00:23:52;97991.53;;;9.24;100.00
66880;BME280;72009;51.392;10.234;2024-02-16T00:24:12;97981.69;;;9.23;100.00
66880;BME280;72009;51.392;10.234;2024-02-16T00:24:33;97982.00;;;9.22;100.00
66880;BME280;72009;51.392;10.234;2024-02-16T00:24:53;97982.00;;;9.22;100.00
66880;BME280;72009;51.392;10.234;2024-02-16T00:25:14;97985.84;;;9.20;100.00
66880;BME280;72009;51.392;10.234;2024-02-16T00:25:34;97980.34;;;9.20;100.00
66880;BME280;72009;51.392;10.234;2024-02-16T00:25:54;97985.03;;;9.20;100.00
66880;BME280;72009;51.392;10.234;2024-02-16T00:26:15;97980.34;;;9.20;100.00
66880;BME280;72009;51.392;10.234;2024-02-16T00:26:35;97980.34;;;9.20;100.00
66880;BME280;72009;51.392;10.234;2024-02-16T00:26:56;97982.00;;;9.22;100.00
66880;BME280;72009;51.392;10.234;2024-02-16T00:27:16;97979.25;;;9.22;100.00
66880;BME280;72009;51.392;10.234;2024-02-16T00:27:36;97980.84;;;9.23;100.00
66880;BME280;72009;51.392;10.234;2024-02-16T00:27:57;97987.47;;;9.22;100.00
66880;BME280;72009;51.392;10.234;2024-02-16T00:28:17;97985.53;;;9.22;100.00
66880;BME280;72009;51.392;10.234;2024-02-16T00:28:37;97986.34;;;9.23;100.00
66880;BME280;72009;51.392;10.234;2024-02-16T00:28:57;97983.59;;;9.23;100.00
66880;BME280;72009;51.392;10.234;2024-02-16T00:29:18;97982.81;;;9.22;100.00
66880;BME280;72009;51.392;10.234;2024-02-16T00:29:38;97980.06;;;9.22;100.00
66880;BME280;72009;51.392;10.234;2024-02-16T00:29:58;97978.13;;;9.23;100.00
66880;BME280;72009;51.392;10.234;2024-02-16T00:30:22;97980.06;;;9.22;100.00
66880;BME280;72009;51.392;10.234;2024-02-16T00:30:42;97971.81;;;9.22;100.00
66880;BME280;72009;51.392;10.234;2024-02-16T00:31:03;97975.38;;;9.23;100.00
66880;BME280;72009;51.392;10.234;2024-02-16T00:31:23;97972.63;;;9.23;100.00
66880;BME280;72009;51.392;10.234;2024-02-16T00:31:43;97983.28;;;9.24;100.00
66880;BME280;72009;51.392;10.234;2024-02-16T00:32:04;97979.75;;;9.24;100.00
66880;BME280;72009;51.392;10.234;2024-02-16T00:32:25;97981.69;;;9.23;100.00
66880;BME280;72009;51.392;10.234;2024-02-16T00:32:45;97978.94;;;9.23;100.00
66880;BME280;72009;51.392;10.234;2024-02-16T00:33:05;97972.63;;;9.23;100.00
66880;BME280;72009;51.392;10.234;2024-02-16T00:33:26;97980.84;;;9.23;100.00
66880;BME280;72009;51.392;10.234;2024-02-16T00:33:46;97978.13;;;9.23;100.00
66880;BME280;72009;51.392;10.234;2024-02-16T00:34:06;97976.19;;;9.23;100.00
66880;BME280;72009;51.392;10.234;2024-02-16T00:34:26;97963.59;;;9.22;100.00
66880;BME280;72009;51.392;10.234;2024-02-16T00:34:47;97969.88;;;9.23;100.00
66880;BME280;72009;51.392;10.234;2024-02-16T00:35:07;97964.69;;;9.21;100.00
66880;BME280;72009;51.392;10.234;2024-02-16T00:35:27;97968.28;;;9.22;100.00
66880;BME280;72009;51.392;10.234;2024-02-16T00:35:48;97971.81;;;9.22;100.00
66880;BME280;72009;51.392;10.234;2024-02-16T00:36:08;97967.97;;;9.23;100.00
66880;BME280;72009;51.392;10.234;2024-02-16T00:36:28;97966.34;;;9.22;100.00
66880;BME280;72009;51.392;10.234;2024-02-16T00:36:49;97963.28;;;9.24;100.00
66880;BME280;72009;51.392;10.234;2024-02-16T00:37:09;97958.09;;;9.22;100.00
66880;BME280;72009;51.392;10.234;2024-02-16T00:37:29;97958.91;;;9.23;100.00
66880;BME280;72009;51.392;10.234;2024-02-16T00:37:49;97956.16;;;9.23;100.00
66880;BME280;72009;51.392;10.234;2024-02-16T00:38:10;97958.09;;;9.22;100.00
66880;BME280;72009;51.392;10.234;2024-02-16T00:38:30;97958.91;;;9.23;100.00
66880;BME280;72009;51.392;10.234;2024-02-16T00:38:50;97957.00;;;9.23;100.00
66880;BME280;72009;51.392;10.234;2024-02-16T00:39:10;97960.84;;;9.22;100.00
66880;BME280;72009;51.392;10.234;2024-02-16T00:39:31;97957.31;;;9.22;100.00
66880;BME280;72009;51.392;10.234;2024-02-16T00:39:51;97960.84;;;9.22;100.00
66880;BME280;72009;51.392;10.234;2024-02-16T00:40:12;97959.22;;;9.21;100.00
66880;BME280;72009;51.392;10.234;2024-02-16T00:40:32;97958.09;;;9.22;100.00
66880;BME280;72009;51.392;10.234;2024-02-16T00:40:53;97961.97;;;9.21;100.00
66880;BME280;72009;51.392;10.234;2024-02-16T00:41:21;97967.44;;;9.21;100.00
66880;BME280;72009;51.392;10.234;2024-02-16T00:41:41;97958.09;;;9.22;100.00
66880;BME280;72009;51.392;10.234;2024-02-16T00:42:02;97955.34;;;9.22;100.00
66880;BME280;72009;51.392;10.234;2024-02-16T00:42:22;97953.72;;;9.21;100.00
66880;BME280;72009;51.392;10.234;2024-02-16T00:42:43;97962.78;;;9.22;100.00
66880;BME280;72009;51.392;10.234;2024-02-16T00:43:03;97957.31;;;9.22;100.00
66880;BME280;72009;51.392;10.234;2024-02-16T00:43:23;97961.66;;;9.23;100.00
66880;BME280;72009;51.392;10.234;2024-02-16T00:43:44;97959.75;;;9.23;100.00
66880;BME280;72009;51.392;10.234;2024-02-16T00:44:04;97958.91;;;9.23;100.00
66880;BME280;72009;51.392;10.234;2024-02-16T00:44:24;97949.88;;;9.22;100.00
66880;BME280;72009;51.392;10.234;2024-02-16T00:44:44;97963.28;;;9.24;100.00
66880;BME280;72009;51.392;10.234;2024-02-16T00:45:05;97954.25;;;9.23;100.00
66880;BME280;72009;51.392;10.234;2024-02-16T00:45:25;97955.06;;;9.24;100.00
66880;BME280;72009;51.392;10.234;2024-02-16T00:45:46;97958.59;;;9.24;100.00
66880;BME280;72009;51.392;10.234;2024-02-16T00:46:06;97954.25;;;9.23;100.00
66880;BME280;72009;51.392;10.234;2024-02-16T00:46:26;97955.84;;;9.24;100.00
66880;BME280;72009;51.392;10.234;2024-02-16T00:46:47;97959.44;;;9.25;100.00
66880;BME280;72009;51.392;10.234;2024-02-16T00:47:07;97958.28;;;9.26;100.00
66880;BME280;72009;51.392;10.234;2024-02-16T00:47:27;97958.28;;;9.26;100.00
66880;BME280;72009;51.392;10.234;2024-02-16T00:47:47;97961.03;;;9.26;100.00
66880;BME280;72009;51.392;10.234;2024-02-16T00:48:08;97961.34;;;9.24;100.00
66880;BME280;72009;51.392;10.234;2024-02-16T00:48:28;97958.00;;;9.27;100.00
66880;BME280;72009;51.392;10.234;2024-02-16T00:48:52;97956.88;;;9.28;100.00
66880;BME280;72009;51.392;10.234;2024-02-16T00:49:12;97953.34;;;9.28;100.00
66880;BME280;72009;51.392;10.234;2024-02-16T00:49:33;97950.91;;;9.26;100.00
66880;BME280;72009;51.392;10.234;2024-02-16T00:49:53;97953.34;;;9.28;100.00
66880;BME280;72009;51.392;10.234;2024-02-16T00:50:13;97956.06;;;9.28;100.00
66880;BME280;72009;51.392;10.234;2024-02-16T00:50:34;97956.88;;;9.28;100.00
66880;BME280;72009;51.392;10.234;2024-02-16T00:50:54;97953.81;;;9.30;100.00
66880;BME280;72009;51.392;10.234;2024-02-16T00:51:14;97948.34;;;9.30;100.00
66880;BME280;72009;51.392;10.234;2024-02-16T00:51:34;97958.22;;;9.31;100.00
66880;BME280;72009;51.392;10.234;2024-02-16T00:51:55;97959.84;;;9.32;100.00
66880;BME280;72009;51.392;10.234;2024-02-16T00:52:15;97964.50;;;9.31;100.00
66880;BME280;72009;51.392;10.234;2024-02-16T00:52:35;97953.53;;;9.31;100.00
66880;BME280;72009;51.392;10.234;2024-02-16T00:52:56;97959.00;;;9.31;100.00
66880;BME280;72009;51.392;10.234;2024-02-16T00:53:16;97958.22;;;9.31;100.00
66880;BME280;72009;51.392;10.234;2024-02-16T00:53:36;97956.28;;;9.31;100.00
66880;BME280;72009;51.392;10.234;2024-02-16T00:53:56;97959.84;;;9.32;100.00
66880;BME280;72009;51.392;10.234;2024-02-16T00:54:17;97967.25;;;9.31;100.00
66880;BME280;72009;51.392;10.234;2024-02-16T00:54:37;97958.72;;;9.33;100.00
66880;BME280;72009;51.392;10.234;2024-02-16T00:54:58;97964.75;;;9.35;100.00
66880;BME280;72009;51.392;10.234;2024-02-16T00:55:18;97955.16;;;9.32;100.00
66880;BME280;72009;51.392;10.234;2024-02-16T00:55:38;97958.44;;;9.34;100.00
66880;BME280;72009;51.392;10.234;2024-02-16T00:55:58;97963.63;;;9.36;100.00
66880;BME280;72009;51.392;10.234;2024-02-16T00:56:19;97964.44;;;9.36;100.00
66880;BME280;72009;51.392;10.234;2024-02-16T00:56:39;97964.13;;;9.38;100.00
66880;BME280;72009;51.392;10.234;2024-02-16T00:57:00;97964.94;;;9.39;100.00
66880;BME280;72009;51.392;10.234;2024-02-16T00:57:20;97973.19;;;9.39;100.00
66880;BME280;72009;51.392;10.234;2024-02-16T00:57:40;97962.50;;;9.37;100.00
66880;BME280;72009;51.392;10.234;2024-02-16T00:58:00;97964.94;;;9.39;100.00
66880;BME280;72009;51.392;10.234;2024-02-16T00:58:21;97970.13;;;9.40;100.00
66880;BME280;72009;51.392;10.234;2024-02-16T00:58:41;97964.31;;;9.42;100.00
66880;BME280;72009;51.392;10.234;2024-02-16T00:59:01;97965.16;;;9.42;100.00
66880;BME280;72009;51.392;10.234;2024-02-16T00:59:21;97954.97;;;9.43;100.00
66880;BME280;72009;51.392;10.234;2024-02-16T00:59:42;97965.97;;;9.43;100.00
66880;BME280;72009;51.392;10.234;2024-02-16T01:00:03;97970.03;;;9.45;100.00
66880;BME280;72009;51.392;10.234;2024-02-16T01:00:23;97970.03;;;9.45;100.00
66880;BME280;72009;51.392;10.234;2024-02-16T01:00:43;97967.28;;;9.45;100.00
66880;BME280;72009;51.392;10.234;2024-02-16T01:01:04;97966.47;;;9.45;100.00
66880;BME280;72009;51.392;10.234;2024-02-16T01:01:24;97969.72;;;9.47;100.00
66880;BME280;72009;51.392;10.234;2024-02-16T01:01:45;97970.84;;;9.46;100.00
66880;BME280;72009;51.392;10.234;2024-02-16T01:02:05;97970.53;;;9.47;100.00
66880;BME280;72009;51.392;10.234;2024-02-16T01:02:26;97966.69;;;9.48;100.00
66880;BME280;72009;51.392;10.234;2024-02-16T01:02:46;97969.41;;;9.48;100.00
66880;BME280;72009;51.392;10.234;2024-02-16T01:03:06;97970.22;;;9.49;100.00
66880;BME280;72009;51.392;10.234;2024-02-16T01:03:26;97974.59;;;9.50;100.00
66880;BME280;72009;51.392;10.234;2024-02-16T01:03:47;97971.03;;;9.49;100.00
66880;BME280;72009;51.392;10.234;2024-02-16T01:04:07;97969.91;;;9.50;100.00
66880;BME280;72009;51.392;10.234;2024-02-16T01:04:27;97974.31;;;9.51;100.00
66880;BME280;72009;51.392;10.234;2024-02-16T01:04:48;97971.03;;;9.49;100.00
66880;BME280;72009;51.392;10.234;2024-02-16T01:05:08;97972.97;;;9.49;100.00
66880;BME280;72009;51.392;10.234;2024-02-16T01:05:28;97978.78;;;9.47;100.00
66880;BME280;72009;51.392;10.234;2024-02-16T01:05:49;97978.78;;;9.47;100.00
66880;BME280;72009;51.392;10.234;2024-02-16T01:06:09;97974.06;;;9.48;100.00
66880;BME280;72009;51.392;10.234;2024-02-16T01:06:29;97972.97;;;9.49;100.00
66880;BME280;72009;51.392;10.234;2024-02-16T01:06:49;97967.47;;;9.49;100.00
66880;BME280;72009;51.392;10.234;2024-02-16T01:07:10;97971.88;;;9.50;100.00
66880;BME280;72009;51.392;10.234;2024-02-16T01:07:30;97976.22;;;9.51;100.00
66880;BME280;72009;51.392;10.234;2024-02-16T01:07:50;97979.78;;;9.51;100.00
66880;BME280;72009;51.392;10.234;2024-02-16T01:08:11;97971.56;;;9.51;100.00
66880;BME280;72009;51.392;10.234;2024-02-16T01:08:32;97972.34;;;9.52;100.00
66880;BME280;72009;51.392;10.234;2024-02-16T01:08:52;97972.06;;;9.53;100.00
66880;BME280;72009;51.392;10.234;2024-02-16T01:09:12;97971.25;;;9.53;100.00
66880;BME280;72009;51.392;10.234;2024-02-16T01:09:32;97971.88;;;9.50;100.00
66880;BME280;72009;51.392;10.234;2024-02-16T01:09:53;97973.47;;;9.51;100.00
66880;BME280;72009;51.392;10.234;2024-02-16T01:10:13;97973.47;;;9.51;100.00
66880;BME280;72009;51.392;10.234;2024-02-16T01:10:33;97970.72;;;9.51;100.00
66880;BME280;72009;51.392;10.234;2024-02-16T01:10:54;97973.16;;;9.52;100.00
66880;BME280;72009;51.392;10.234;2024-02-16T01:11:14;97971.25;;;9.53;100.00
66880;BME280;72009;51.392;10.234;2024-02-16T01:11:34;97974.78;;;9.53;100.00
66880;BME280;72009;51.392;10.234;2024-02-16T01:11:55;97972.88;;;9.54;100.00
66880;BME280;72009;51.392;10.234;2024-02-16T01:12:15;97972.88;;;9.54;100.00
66880;BME280;72009;51.392;10.234;2024-02-16T01:12:35;97975.31;;;9.56;100.00
66880;BME280;72009;51.392;10.234;2024-02-16T01:12:55;97973.38;;;9.56;100.00
66880;BME280;72009;51.392;10.234;2024-02-16T01:13:16;97977.75;;;9.57;100.00
66880;BME280;72009;51.392;10.234;2024-02-16T01:13:36;97969.53;;;9.57;100.00
66880;BME280;72009;51.392;10.234;2024-02-16T01:13:56;97974.19;;;9.57;100.00
66880;BME280;72009;51.392;10.234;2024-02-16T01:14:16;97973.06;;;9.58;100.00
66880;BME280;72009;51.392;10.234;2024-02-16T01:14:37;97977.44;;;9.59;100.00
66880;BME280;72009;51.392;10.234;2024-02-16T01:14:57;97971.97;;;9.59;100.00
66880;BME280;72009;51.392;10.234;2024-02-16T01:15:18;97969.22;;;9.59;100.00
66880;BME280;72009;51.392;10.234;2024-02-16T01:15:38;97982.63;;;9.60;100.00
66880;BME280;72009;51.392;10.234;2024-02-16T01:15:59;97969.72;;;9.61;100.00
66880;BME280;72009;51.392;10.234;2024-02-16T01:16:19;97970.50;;;9.61;100.00
66880;BME280;72009;51.392;10.234;2024-02-16T01:16:39;97966.97;;;9.61;100.00
66880;BME280;72009;51.392;10.234;2024-02-16T01:17:00;97970.50;;;9.61;100.00
66880;BME280;72009;51.392;10.234;2024-02-16T01:17:20;97974.91;;;9.62;100.00
66880;BME280;72009;51.392;10.234;2024-02-16T01:17:40;97972.94;;;9.63;100.00
66880;BME280;72009;51.392;10.234;2024-02-16T01:18:00;97973.78;;;9.63;100.00
66880;BME280;72009;51.392;10.234;2024-02-16T01:18:21;97977.31;;;9.64;100.00
66880;BME280;72009;51.392;10.234;2024-02-16T01:18:41;97967.47;;;9.63;100.00
66880;BME280;72009;51.392;10.234;2024-02-16T01:19:01;97975.38;;;9.64;100.00
66880;BME280;72009;51.392;10.234;2024-02-16T01:19:21;97972.94;;;9.63;100.00
66880;BME280;72009;51.392;10.234;2024-02-16T01:19:42;97968.28;;;9.63;100.00
66880;BME280;72009;51.392;10.234;2024-02-16T01:20:02;97972.94;;;9.63;100.00
66880;BME280;72009;51.392;10.234;2024-02-16T01:20:22;97967.47;;;9.63;100.00
66880;BME280;72009;51.392;10.234;2024-02-16T01:20:43;97973.78;;;9.63;100.00
66880;BME280;72009;51.392;10.234;2024-02-16T01:21:03;97969.91;;;9.64;100.00
66880;BME280;72009;51.392;10.234;2024-02-16T01:21:23;97969.91;;;9.64;100.00
66880;BME280;72009;51.392;10.234;2024-02-16T01:21:44;97972.63;;;9.64;100.00
66880;BME280;72009;51.392;10.234;2024-02-16T01:22:04;97972.63;;;9.64;100.00
66880;BME280;72009;51.392;10.234;2024-02-16T01:22:24;97974.28;;;9.65;100.00
66880;BME280;72009;51.392;10.234;2024-02-16T01:22:44;97975.06;;;9.66;100.00
66880;BME280;72009;51.392;10.234;2024-02-16T01:23:05;97974.28;;;9.65;100.00
66880;BME280;72009;51.392;10.234;2024-02-16T01:23:25;97967.66;;;9.66;100.00
66880;BME280;72009;51.392;10.234;2024-02-16T01:23:45;97977.53;;;9.67;100.00
66880;BME280;72009;51.392;10.234;2024-02-16T01:24:06;97971.22;;;9.67;100.00
66880;BME280;72009;51.392;10.234;2024-02-16T01:24:26;97977.53;;;9.67;100.00
66880;BME280;72009;51.392;10.234;2024-02-16T01:24:46;97970.41;;;9.66;100.00
66880;BME280;72009;51.392;10.234;2024-02-16T01:25:08;97975.91;;;9.66;100.00
66880;BME280;72009;51.392;10.234;2024-02-16T01:25:28;97972.34;;;9.66;100.00
66880;BME280;72009;51.392;10.234;2024-02-16T01:25:48;97971.53;;;9.65;100.00
66880;BME280;72009;51.392;10.234;2024-02-16T01:26:09;97970.72;;;9.65;100.00
66880;BME280;72009;51.392;10.234;2024-02-16T01:26:29;97971.53;;;9.65;100.00
66880;BME280;72009;51.392;10.234;2024-02-16T01:26:49;97974.28;;;9.65;100.00
66880;BME280;72009;51.392;10.234;2024-02-16T01:27:09;97978.66;;;9.66;100.00
66880;BME280;72009;51.392;10.234;2024-02-16T01:27:30;97969.59;;;9.66;100.00
66880;BME280;72009;51.392;10.234;2024-02-16T01:27:50;97970.72;;;9.65;100.00
66880;BME280;72009;51.392;10.234;2024-02-16T01:28:10;97971.53;;;9.65;100.00
66880;BME280;72009;51.392;10.234;2024-02-16T01:28:30;97968.78;;;9.65;100.00
66880;BME280;72009;51.392;10.234;2024-02-16T01:28:51;97967.97;;;9.65;100.00
66880;BME280;72009;51.392;10.234;2024-02-16T01:29:11;97969.59;;;9.66;100.00
66880;BME280;72009;51.392;10.234;2024-02-16T01:29:31;97973.47;;;9.65;100.00
66880;BME280;72009;51.392;10.234;2024-02-16T01:29:52;97975.06;;;9.66;100.00
66880;BME280;72009;51.392;10.234;2024-02-16T01:30:12;97971.53;;;9.65;100.00
66880;BME280;72009;51.392;10.234;2024-02-16T01:30:32;97974.28;;;9.65;100.00
66880;BME280;72009;51.392;10.234;2024-02-16T01:30:52;97972.63;;;9.64;100.00
66880;BME280;72009;51.392;10.234;2024-02-16T01:31:13;97971.03;;;9.63;100.00
66880;BME280;72009;51.392;10.234;2024-02-16T01:31:33;97969.59;;;9.66;100.00
66880;BME280;72009;51.392;10.234;2024-02-16T01:31:53;97976.22;;;9.65;100.00
66880;BME280;72009;51.392;10.234;2024-02-16T01:32:13;97975.38;;;9.64;100.00
66880;BME280;72009;51.392;10.234;2024-02-16T01:32:34;97976.22;;;9.65;100.00
66880;BME280;72009;51.392;10.234;2024-02-16T01:32:54;97978.13;;;9.64;100.00
66880;BME280;72009;51.392;10.234;2024-02-16T01:33:14;97978.13;;;9.64;100.00
66880;BME280;72009;51.392;10.234;2024-02-16T01:33:35;97971.84;;;9.64;100.00
66880;BME280;72009;51.392;10.234;2024-02-16T01:33:55;97971.84;;;9.64;100.00
66880;BME280;72009;51.392;10.234;2024-02-16T01:34:15;97971.84;;;9.64;100.00
66880;BME280;72009;51.392;10.234;2024-02-16T01:34:36;97971.03;;;9.63;100.00
66880;BME280;72009;51.392;10.234;2024-02-16T01:34:56;97972.94;;;9.63;100.00
66880;BME280;72009;51.392;10.234;2024-02-16T01:35:16;97968.28;;;9.63;100.00
66880;BME280;72009;51.392;10.234;2024-02-16T01:35:37;97974.59;;;9.64;100.00
66880;BME280;72009;51.392;10.234;2024-02-16T01:35:57;97970.19;;;9.63;100.00
66880;BME280;72009;51.392;10.234;2024-02-16T01:36:18;97968.59;;;9.62;100.00
66880;BME280;72009;51.392;10.234;2024-02-16T01:36:39;97960.34;;;9.62;100.00
66880;BME280;72009;51.392;10.234;2024-02-16T01:36:59;97976.31;;;9.60;100.00
66880;BME280;72009;51.392;10.234;2024-02-16T01:37:19;97966.16;;;9.60;100.00
66880;BME280;72009;51.392;10.234;2024-02-16T01:37:43;97970.31;;;9.58;100.00
66880;BME280;72009;51.392;10.234;2024-02-16T01:38:03;97973.06;;;9.58;100.00
66880;BME280;72009;51.392;10.234;2024-02-16T01:38:23;97971.44;;;9.57;100.00
66880;BME280;72009;51.392;10.234;2024-02-16T01:38:44;97967.88;;;9.56;100.00
66880;BME280;72009;51.392;10.234;2024-02-16T01:39:04;97967.88;;;9.56;100.00
66880;BME280;72009;51.392;10.234;2024-02-16T01:39:24;97972.28;;;9.57;100.00
66880;BME280;72009;51.392;10.234;2024-02-16T01:39:45;97971.75;;;9.55;100.00
66880;BME280;72009;51.392;10.234;2024-02-16T01:40:06;97966.78;;;9.57;100.00
66880;BME280;72009;51.392;10.234;2024-02-16T01:40:27;97974.19;;;9.57;100.00
66880;BME280;72009;51.392;10.234;2024-02-16T01:40:48;97978.06;;;9.56;100.00
66880;BME280;72009;51.392;10.234;2024-02-16T01:41:08;97974.50;;;9.55;100.00
66880;BME280;72009;51.392;10.234;2024-02-16T01:41:28;97974.78;;;9.53;100.00
66880;BME280;72009;51.392;10.234;2024-02-16T01:41:49;97970.41;;;9.52;100.00
66880;BME280;72009;51.392;10.234;2024-02-16T01:42:09;97966.56;;;9.53;100.00
66880;BME280;72009;51.392;10.234;2024-02-16T01:42:29;97975.91;;;9.52;100.00
66880;BME280;72009;51.392;10.234;2024-02-16T01:42:49;97968.81;;;9.51;100.00
66880;BME280;72009;51.392;10.234;2024-02-16T01:43:10;97967.16;;;9.50;100.00
66880;BME280;72009;51.392;10.234;2024-02-16T01:43:30;97967.97;;;9.51;100.00
66880;BME280;72009;51.392;10.234;2024-02-16T01:43:53;97967.16;;;9.50;100.00
66880;BME280;72009;51.392;10.234;2024-02-16T01:44:14;97959.75;;;9.51;100.00
66880;BME280;72009;51.392;10.234;2024-02-16T01:44:34;97967.97;;;9.51;100.00
66880;BME280;72009;51.392;10.234;2024-02-16T01:44:54;97960.88;;;9.50;100.00
66880;BME280;72009;51.392;10.234;2024-02-16T01:45:15;97970.72;;;9.51;100.00
66880;BME280;72009;51.392;10.234;2024-02-16T01:45:35;97969.13;;;9.50;100.00
66880;BME280;72009;51.392;10.234;2024-02-16T01:45:55;97969.91;;;9.50;100.00
66880;BME280;72009;51.392;10.234;2024-02-16T01:46:16;97969.13;;;9.50;100.00
66880;BME280;72009;51.392;10.234;2024-02-16T01:46:36;97969.13;;;9.50;100.00